Latest Weather Observations for Whyalla

IDS60801

Issued at 6:01 pm CDT Friday 12 February 2016 (issued every 30 minutes, with the page automatically refreshed every 10 minutes)

About weather observations | Map of weather stations | Latest weather observations for SA | Other Formats
Station Details ID: 018120 Name: WHYALLA AERO Lat: -33.05 Lon: 137.52 Height: 6.5 m
Data from the previous 72 hours. | See also: Recent months at Whyalla
Date/Time
CDT
Temp
°C
App
Temp
°C
Dew
Point
Rel
Hum
%
Delta-T
°C
Wind Press
QNH
hPa
Press
MSL
hPa
Rain
since 9 am
mm
Dir
 
Spd
km/h
Gust
km/h
Spd
kts
Gust
kts
12/06:00pm 28.5 26.7 16.1 47 7.7 S 20 26 11 14 1010.4 1010.3 0.0
12/05:30pm 28.2 25.7 15.1 44 8.0 SSE 22 26 12 14 1010.4 1010.3 0.0
12/05:00pm 28.3 26.1 14.9 44 8.1 SSE 20 26 11 14 1010.5 1010.4 0.0
12/04:30pm 28.5 25.7 14.3 41 8.5 S 22 28 12 15 1010.6 1010.5 0.0
12/04:00pm 27.8 25.6 17.0 51 6.8 S 24 35 13 19 1010.8 1010.7 0.0
12/03:30pm 30.1 27.6 14.2 38 9.6 SSE 20 28 11 15 1010.9 1010.8 0.0
12/03:00pm 29.4 26.4 11.9 34 10.2 SSE 19 26 10 14 1011.2 1011.1 0.0
12/02:30pm 29.1 25.8 11.6 33 10.1 SSE 20 26 11 14 1011.6 1011.5 0.0
12/02:00pm 28.1 25.1 12.5 38 9.1 SSE 20 28 11 15 1012.1 1012.0 0.0
12/01:30pm 28.3 26.0 14.2 42 8.5 SSE 19 24 10 13 1012.5 1012.4 0.0
12/01:00pm 27.0 24.5 14.1 45 7.7 S 20 26 11 14 1012.9 1012.8 0.0
12/12:30pm 25.7 24.4 15.7 54 6.1 SSE 17 24 9 13 1013.2 1013.1 0.0
12/12:00pm 24.9 23.6 15.8 57 5.5 S 17 26 9 14 1013.6 1013.5 0.0
12/11:30am 25.4 23.8 16.0 56 5.7 S 19 24 10 13 1013.8 1013.7 0.0
12/11:00am 24.0 22.3 16.3 62 4.7 S 20 28 11 15 1014.0 1013.9 0.0
12/10:30am 23.9 22.7 17.4 67 4.0 S 20 28 11 15 1014.2 1014.1 0.0
12/10:00am 23.1 21.4 17.3 70 3.6 S 22 30 12 16 1014.5 1014.4 0.0
12/09:30am 21.9 19.7 17.9 78 2.5 SSW 26 32 14 17 1014.7 1014.6 0.0
12/09:00am 21.2 18.9 17.6 80 2.2 SSW 26 32 14 17 1014.7 1014.6 0.0
12/08:30am 20.7 19.6 17.7 83 1.8 SSW 20 28 11 15 1014.7 1014.6 0.0
12/08:00am 19.4 18.7 17.4 88 1.2 SSW 17 24 9 13 1014.6 1014.5 0.0
12/07:30am 18.1 17.9 16.8 92 0.8 SW 13 17 7 9 1014.5 1014.4 0.0
12/07:00am 17.1 17.0 16.1 94 0.6 SW 11 13 6 7 1014.2 1014.1 0.0
12/06:30am 17.1 16.9 15.8 92 0.8 SW 11 13 6 7 1013.8 1013.7 0.0
12/06:00am 17.9 17.2 16.4 91 0.9 SW 15 19 8 10 1013.8 1013.7 0.0
12/05:30am 18.1 17.1 16.6 91 0.9 SSW 17 20 9 11 1013.5 1013.4 0.0
12/05:00am 18.2 16.8 16.5 90 1.0 SSW 19 22 10 12 1013.4 1013.3 0.0
12/04:30am 18.1 17.0 16.4 90 1.0 SW 17 20 9 11 1013.4 1013.3 0.0
12/04:00am 18.4 17.4 16.6 89 1.1 SSW 17 20 9 11 1013.5 1013.4 0.0
12/03:30am 18.5 17.5 16.5 88 1.2 SW 17 20 9 11 1013.4 1013.3 0.0
12/03:00am 18.8 17.4 16.6 87 1.3 SW 19 26 10 14 1013.9 1013.8 0.0
12/02:30am 19.0 18.4 16.6 86 1.4 SSW 15 20 8 11 1013.8 1013.7 0.0
12/02:00am 19.4 17.8 16.6 84 1.7 SSW 20 24 11 13 1014.2 1014.1 0.0
12/01:30am 19.7 18.1 16.5 82 1.9 SSW 20 24 11 13 1014.5 1014.4 0.0
12/01:00am 20.2 18.8 17.0 82 1.9 SSW 20 26 11 14 1014.7 1014.6 0.0
12/12:30am 21.0 18.9 17.2 79 2.3 SSW 24 33 13 18 1014.7 1014.6 0.0
12/12:00am 21.5 18.8 16.5 73 3.0 SSW 26 41 14 22 1014.9 1014.8 0.0
 
Date/Time
CDT
Temp
°C
App
Temp
°C
Dew
Point
Rel
Hum
%
Delta-T
°C
Wind Press
QNH
hPa
Press
MSL
hPa
Rain
since 9 am
mm
Dir
 
Spd
km/h
Gust
km/h
Spd
kts
Gust
kts
11/11:30pm 22.2 18.2 15.1 64 4.2 SSW 30 39 16 21 1014.9 1014.8 0.0
11/11:00pm 21.9 19.9 17.5 76 2.7 SSW 24 30 13 16 1015.0 1014.9 0.0
11/10:30pm 22.2 19.6 16.9 72 3.2 SSW 26 35 14 19 1014.8 1014.7 0.0
11/10:00pm 22.8 19.7 16.6 68 3.8 SSW 28 41 15 22 1014.5 1014.4 0.0
11/09:30pm 23.4 19.5 15.5 61 4.7 SSW 30 41 16 22 1013.9 1013.8 0.0
11/09:00pm 24.3 19.7 13.5 51 6.3 SSW 30 41 16 22 1013.5 1013.4 0.0
11/08:30pm 25.2 20.6 13.4 48 6.9 SSW 30 41 16 22 1012.9 1012.8 0.0
11/08:00pm 25.8 21.5 15.5 53 6.2 SSW 32 41 17 22 1012.6 1012.5 0.0
11/07:30pm 26.1 21.9 16.1 54 6.1 SSW 33 44 18 24 1012.1 1012.0 0.0
11/07:00pm 27.4 22.8 16.1 50 7.0 SSW 35 44 19 24 1011.9 1011.8 0.0
11/06:30pm 27.6 22.5 15.9 49 7.2 SSW 37 46 20 25 1011.6 1011.5 0.0
11/06:00pm 28.1 23.6 17.3 52 6.8 SSW 37 48 20 26 1011.4 1011.3 0.0
11/05:30pm 28.3 23.6 16.9 50 7.1 SSW 37 52 20 28 1011.3 1011.2 0.0
11/05:00pm 28.6 22.2 13.3 39 9.1 SSW 39 50 21 27 1011.2 1011.1 0.0
11/04:30pm 29.0 22.4 13.6 38 9.2 SSW 41 52 22 28 1011.4 1011.3 0.0
11/04:00pm 29.0 23.3 15.2 43 8.4 S 39 50 21 27 1011.5 1011.4 0.0
11/03:30pm 29.8 24.3 13.5 36 9.7 SSW 35 48 19 26 1011.7 1011.6 0.0
11/03:00pm 28.8 23.5 14.2 40 8.8 S 35 43 19 23 1012.0 1011.9 0.0
11/02:30pm 28.9 23.4 11.9 35 9.9 SSW 32 39 17 21 1012.2 1012.1 0.0
11/02:00pm 28.3 23.5 11.8 36 9.5 S 28 37 15 20 1012.4 1012.3 0.0
11/01:30pm 27.7 23.5 12.5 39 8.9 S 26 35 14 19 1012.8 1012.7 0.0
11/01:00pm 26.6 23.2 12.6 42 8.1 S 22 30 12 16 1013.2 1013.1 0.0
11/12:30pm 25.6 22.6 14.7 51 6.5 S 24 33 13 18 1013.5 1013.4 0.0
11/12:00pm 24.6 21.5 16.6 61 4.9 S 28 33 15 18 1013.8 1013.7 0.0
11/11:30am 23.8 20.9 17.1 66 4.1 S 28 39 15 21 1014.4 1014.3 0.0
11/11:00am 23.3 20.5 17.3 69 3.7 S 28 37 15 20 1014.7 1014.6 0.0
11/10:30am 22.5 19.6 17.0 71 3.4 S 28 37 15 20 1014.9 1014.8 0.0
11/10:00am 21.9 19.0 17.1 74 2.9 S 28 37 15 20 1014.9 1014.8 0.0
11/09:30am 22.5 20.1 17.4 73 3.1 S 26 39 14 21 1015.0 1014.9 0.0
11/09:00am 21.6 18.8 17.2 76 2.7 S 28 37 15 20 1014.8 1014.7 0.0
11/08:30am 21.1 18.7 17.3 79 2.3 S 26 35 14 19 1014.7 1014.6 0.0
11/08:00am 20.6 18.1 17.2 81 2.1 S 26 35 14 19 1014.6 1014.5 0.0
11/07:30am 20.0 18.7 17.2 84 1.7 S 20 30 11 16 1014.4 1014.3 0.0
11/07:00am 19.4 18.3 17.2 87 1.3 S 19 24 10 13 1014.3 1014.2 0.0
11/06:30am 19.3 17.9 17.1 87 1.3 S 20 28 11 15 1014.1 1014.0 0.0
11/06:00am 19.2 17.8 17.0 87 1.3 S 20 26 11 14 1013.7 1013.6 0.0
11/05:30am 19.2 17.8 17.0 87 1.3 S 20 26 11 14 1013.4 1013.3 0.0
11/05:00am 19.3 17.9 16.9 86 1.5 S 20 26 11 14 1013.2 1013.1 0.0
11/04:30am 19.3 17.9 16.9 86 1.5 S 20 28 11 15 1013.1 1013.0 0.0
11/04:00am 18.5 17.6 16.8 90 1.0 SSW 17 22 9 12 1013.0 1012.9 0.0
11/03:30am 18.6 17.0 16.6 88 1.2 SSW 20 28 11 15 1013.0 1012.9 0.0
11/03:00am 18.7 17.1 16.5 87 1.3 SSW 20 28 11 15 1013.0 1012.9 0.0
11/02:30am 18.7 16.9 16.1 85 1.5 SSW 20 26 11 14 1013.1 1013.0 0.0
11/02:00am 19.1 17.3 16.1 83 1.8 SSW 20 28 11 15 1013.4 1013.3 0.0
11/01:30am 19.3 18.0 15.8 80 2.1 SSW 17 24 9 13 1013.8 1013.7 0.0
11/01:00am 20.0 18.4 16.0 78 2.4 SSW 19 24 10 13 1013.7 1013.6 0.0
11/12:30am 21.1 18.7 16.5 75 2.8 SSW 24 32 13 17 1013.8 1013.7 0.0
11/12:00am 21.7 19.1 16.9 74 2.9 SSW 26 33 14 18 1013.8 1013.7 0.0
 
Date/Time
CDT
Temp
°C
App
Temp
°C
Dew
Point
Rel
Hum
%
Delta-T
°C
Wind Press
QNH
hPa
Press
MSL
hPa
Rain
since 9 am
mm
Dir
 
Spd
km/h
Gust
km/h
Spd
kts
Gust
kts
10/11:30pm 22.4 19.7 15.7 66 4.0 SSW 24 32 13 17 1013.9 1013.8 0.0
10/11:00pm 22.8 21.7 18.6 77 2.6 SSW 22 30 12 16 1013.8 1013.7 0.0
10/10:30pm 22.3 19.8 17.2 73 3.1 SSW 26 33 14 18 1013.8 1013.7 0.0
10/10:00pm 22.6 19.5 16.6 69 3.7 SSW 28 37 15 20 1013.4 1013.3 0.0
10/09:30pm 23.2 19.1 16.0 64 4.4 SSW 32 44 17 24 1013.0 1012.9 0.0
10/09:00pm 24.1 20.4 15.1 57 5.4 SSW 28 43 15 23 1012.6 1012.5 0.0
10/08:30pm 25.1 19.7 12.7 46 7.2 SSW 33 43 18 23 1012.5 1012.4 0.0
10/08:00pm 25.6 21.0 14.7 51 6.5 SSW 32 43 17 23 1012.1 1012.0 0.0
10/07:30pm 26.0 21.9 16.0 54 6.1 SSW 32 39 17 21 1011.7 1011.6 0.0
10/07:00pm 26.5 22.0 15.5 50 6.7 SSW 33 44 18 24 1011.4 1011.3 0.0
10/06:30pm 26.1 20.8 16.4 55 6.0 S 39 52 21 28 1011.1 1011.0 0.0
10/06:00pm 26.3 20.4 15.7 52 6.5 S 41 54 22 29 1011.0 1010.9 0.0
10/05:30pm 28.2 23.3 13.7 41 8.6 S 32 43 17 23 1010.8 1010.7 0.0
10/05:00pm 28.5 23.9 14.7 43 8.4 S 32 41 17 22 1010.7 1010.6 0.0
10/04:30pm 30.8 26.8 15.2 38 9.6 S 30 37 16 20 1010.9 1010.8 0.0
10/04:00pm 30.0 25.3 13.3 36 9.9 S 30 41 16 22 1011.2 1011.1 0.0
10/03:30pm 29.5 23.3 11.5 33 10.4 SSW 35 44 19 24 1011.4 1011.3 0.0
10/03:00pm 30.4 24.6 11.4 31 11.0 S 33 43 18 23 1011.7 1011.6 0.0
10/02:30pm 30.4 23.3 8.2 25 12.2 S 35 44 19 24 1011.8 1011.7 0.0
10/02:00pm 29.9 24.3 13.2 36 9.9 S 35 46 19 25 1012.0 1011.9 0.0
10/01:30pm 29.4 26.2 18.2 51 7.2 S 32 41 17 22 1012.4 1012.3 0.0
10/01:00pm 28.4 24.6 15.7 46 7.8 S 30 39 16 21 1012.5 1012.4 0.0
10/12:30pm 28.6 25.7 14.1 41 8.7 S 22 33 12 18 1012.7 1012.6 0.0
10/12:00pm 28.3 25.3 14.9 44 8.1 S 24 32 13 17 1013.1 1013.0 0.0
10/11:30am 27.5 25.0 14.2 44 8.0 SSW 20 28 11 15 1013.2 1013.1 0.0
10/11:00am 26.3 23.5 15.4 51 6.6 SSW 24 28 13 15 1013.5 1013.4 0.0
10/10:30am 24.6 22.1 17.1 63 4.6 SSW 26 33 14 18 1013.8 1013.7 0.0
10/10:00am 24.0 22.4 17.5 67 4.0 SSW 22 32 12 17 1014.0 1013.9 0.0
10/09:30am 24.0 23.6 18.9 73 3.2 S 19 26 10 14 1013.9 1013.8 0.0
10/09:00am 22.7 21.8 18.3 76 2.8 SSW 20 28 11 15 1014.1 1014.0 0.0
10/08:30am 22.0 21.2 18.4 80 2.3 SSW 20 26 11 14 1014.0 1013.9 0.0
10/08:00am 21.0 20.0 18.0 83 1.9 SSW 20 28 11 15 1014.0 1013.9 0.0
10/07:30am 20.3 19.5 17.9 86 1.5 SSW 19 24 10 13 1013.8 1013.7 0.0
10/07:00am 19.8 18.6 17.6 87 1.3 SSW 20 26 11 14 1013.6 1013.5 0.0
10/06:30am 19.8 18.8 17.6 87 1.3 SSW 19 24 10 13 1013.3 1013.2 0.0
10/06:00am 19.9 18.8 17.7 87 1.4 SSW 20 24 11 13 1013.1 1013.0 0.0
10/05:30am 20.0 18.8 17.4 85 1.6 SSW 20 28 11 15 1013.0 1012.9 0.0
10/05:00am 20.1 19.0 17.3 84 1.7 SSW 19 24 10 13 1012.9 1012.8 0.0
10/04:30am 20.2 20.1 17.0 82 1.9 SSW 13 19 7 10 1012.7 1012.6 0.0
10/04:00am 20.3 20.1 16.7 80 2.2 SSW 13 17 7 9 1012.6 1012.5 0.0
10/03:30am 20.7 20.1 16.7 78 2.4 SSW 15 20 8 11 1012.9 1012.8 0.0
10/03:00am 21.0 20.4 16.6 76 2.7 SSW 15 20 8 11 1012.9 1012.8 0.0
10/02:30am 21.5 20.3 16.0 71 3.3 SSW 17 20 9 11 1013.2 1013.1 0.0
10/02:00am 22.0 20.2 15.6 67 3.8 SSW 19 24 10 13 1013.2 1013.1 0.0
10/01:30am 22.3 20.8 15.4 65 4.1 SW 17 22 9 12 1013.6 1013.5 0.0
10/01:00am 22.7 21.3 16.5 68 3.8 SW 19 24 10 13 1013.8 1013.7 0.0
10/12:30am 23.0 21.6 17.0 69 3.7 SSW 20 24 11 13 1014.1 1014.0 0.0
10/12:00am 23.2 21.5 17.2 69 3.7 SSW 22 32 12 17 1014.2 1014.1 0.0
 
Date/Time
CDT
Temp
°C
App
Temp
°C
Dew
Point
Rel
Hum
%
Delta-T
°C
Wind Press
QNH
hPa
Press
MSL
hPa
Rain
since 9 am
mm
Dir
 
Spd
km/h
Gust
km/h
Spd
kts
Gust
kts
09/11:30pm 23.4 22.3 17.4 69 3.7 SSW 19 24 10 13 1014.5 1014.4 0.0
09/11:00pm 23.7 21.9 17.0 66 4.1 SSW 22 30 12 16 1014.3 1014.2 0.0
09/10:30pm 24.2 22.7 17.7 67 4.1 SSW 22 33 12 18 1014.2 1014.1 0.0
09/10:00pm 24.6 23.4 17.6 65 4.4 SSW 20 26 11 14 1014.0 1013.9 0.0
09/09:30pm 25.1 23.1 16.5 59 5.3 SSW 22 32 12 17 1013.7 1013.6 0.0
09/09:00pm 25.6 23.8 17.8 62 4.9 SSW 24 32 13 17 1013.5 1013.4 0.0
09/08:30pm 26.1 23.8 16.6 55 5.9 SSW 24 32 13 17 1013.3 1013.2 0.0
09/08:00pm 26.5 23.5 15.8 51 6.5 S 26 37 14 20 1013.2 1013.1 0.0
09/07:30pm 27.2 22.7 14.9 47 7.4 S 32 43 17 23 1012.9 1012.8 0.0
09/07:00pm 28.0 23.0 13.5 41 8.6 S 32 44 17 24 1012.8 1012.7 0.0
09/06:30pm 28.0 22.6 13.9 42 8.4 S 35 46 19 25 1012.9 1012.8 0.0

Other Formats:

Comma delimited format used in spreadsheet applications
http://www.bom.gov.au/fwo/IDS60801/IDS60801.95664.axf

JavaScript Object Notation format (JSON) in row-major order
http://www.bom.gov.au/fwo/IDS60801/IDS60801.95664.json